Terminal Aerodrome Forecast
Issued by NWS Shreveport, LA

Current Version | Previous Version | Text Only | Print | Product List | Glossary On
Versions: 1 2 3 4 5 6 7 8 9 10 11 12 13 14 15 16 17
000
FTUS44 KSHV 231700
TAFLFK
TAF
KLFK 231740Z 2318/2418 VRB03KT P6SM SCT030
     FM240000 01005KT P6SM FEW040 SCT250
     FM240600 00000KT P6SM SKC
      TEMPO 2410/2413 5SM BR
     FM241500 27005KT P6SM SCT030 SCT250=

USA.gov is the U.S. government's official web portal to all federal, state and local government web resources and services.